PBD5862 UWSG-UUEE
Flight info
| Callsign | PBD5862 |
|---|---|
| Flight time | N/A |
| Altitude | 36000 |
| Route | SOKUR1J SOKUR T661 GEKPA L736 OLOPI OLOPI3W |
| Aircraft | B738/M-SDE2E3FGHIRWXY/LB1 |
Departure
| Time | 2026-05-06 16:02 |
|---|---|
| Airport | Gagarin International Airport (UWSG) |
Arrival
| Time | N/A |
|---|---|
| Airport | Sheremetyevo International Airport (UUEE) |
| Time | Latitude | Longitude | Altitude | Speed | Heading |
|---|---|---|---|---|---|
| 2026-05-06 15:46 | 51.71695 | 46.17036 | 9 ft | 0 kts | 2° |
| 2026-05-06 15:54 | 51.71682 | 46.17035 | 9 ft | 2 kts | 2° |
| 2026-05-06 15:54 | 51.71673 | 46.17034 | 9 ft | 2 kts | 0° |
| 2026-05-06 15:54 | 51.71658 | 46.17039 | 9 ft | 2 kts | 336° |
| 2026-05-06 15:55 | 51.71645 | 46.17051 | 9 ft | 2 kts | 318° |
| 2026-05-06 15:55 | 51.71635 | 46.17070 | 9 ft | 2 kts | 299° |
| 2026-05-06 15:55 | 51.71630 | 46.17092 | 9 ft | 2 kts | 281° |
| 2026-05-06 15:55 | 51.71629 | 46.17105 | 9 ft | 1 kts | 269° |
| 2026-05-06 15:56 | 51.71629 | 46.17112 | 9 ft | 0 kts | 271° |
| 2026-05-06 15:57 | 51.71630 | 46.17081 | 9 ft | 7 kts | 271° |
| 2026-05-06 15:57 | 51.71634 | 46.16911 | 9 ft | 21 kts | 271° |
| 2026-05-06 15:58 | 51.71639 | 46.16624 | 9 ft | 23 kts | 261° |
| 2026-05-06 15:58 | 51.71521 | 46.16576 | 9 ft | 18 kts | 181° |
| 2026-05-06 15:58 | 51.71386 | 46.16570 | 9 ft | 17 kts | 182° |
| 2026-05-06 15:58 | 51.71327 | 46.16566 | 9 ft | 11 kts | 185° |
| 2026-05-06 15:59 | 51.71279 | 46.16437 | 9 ft | 20 kts | 273° |
| 2026-05-06 15:59 | 51.71286 | 46.16102 | 9 ft | 28 kts | 272° |
| 2026-05-06 15:59 | 51.71289 | 46.15986 | 9 ft | 32 kts | 271° |
| 2026-05-06 15:59 | 51.71303 | 46.15362 | 9 ft | 33 kts | 273° |
| 2026-05-06 16:00 | 51.71346 | 46.15047 | 9 ft | 24 kts | 280° |
| 2026-05-06 16:00 | 51.71314 | 46.15027 | 9 ft | 8 kts | 108° |
| 2026-05-06 16:00 | 51.71309 | 46.15124 | 9 ft | 8 kts | 92° |
| 2026-05-06 16:00 | 51.71303 | 46.15321 | 9 ft | 39 kts | 94° |
| 2026-05-06 16:01 | 51.71283 | 46.16194 | 9 ft | 104 kts | 91° |
| 2026-05-06 16:01 | 51.71255 | 46.17668 | 10 ft | 156 kts | 93° |
| 2026-05-06 16:01 | 51.71194 | 46.19614 | 139 ft | 186 kts | 93° |
| 2026-05-06 16:01 | 51.71140 | 46.21845 | 448 ft | 209 kts | 93° |
| 2026-05-06 16:02 | 51.71088 | 46.24209 | 1205 ft | 207 kts | 92° |
| 2026-05-06 16:02 | 51.71039 | 46.26596 | 1571 ft | 225 kts | 92° |
| 2026-05-06 16:02 | 51.70988 | 46.29196 | 2095 ft | 237 kts | 89° |
| 2026-05-06 16:02 | 51.71365 | 46.31753 | 2743 ft | 245 kts | 60° |
| 2026-05-06 16:03 | 51.72640 | 46.33628 | 3334 ft | 258 kts | 25° |
| 2026-05-06 16:03 | 51.74350 | 46.34596 | 4206 ft | 261 kts | 21° |
| 2026-05-06 16:03 | 51.75985 | 46.35754 | 5020 ft | 256 kts | 25° |
| 2026-05-06 16:03 | 51.77593 | 46.36933 | 5668 ft | 259 kts | 23° |
| 2026-05-06 16:04 | 51.79321 | 46.37954 | 6363 ft | 267 kts | 9° |
| 2026-05-06 16:04 | 51.81151 | 46.37667 | 7131 ft | 271 kts | 337° |
| 2026-05-06 16:04 | 51.82599 | 46.35764 | 7928 ft | 278 kts | 305° |
| 2026-05-06 16:04 | 51.83357 | 46.32874 | 8768 ft | 283 kts | 291° |
| 2026-05-06 16:05 | 51.84082 | 46.29897 | 9555 ft | 287 kts | 296° |
| 2026-05-06 16:05 | 51.84917 | 46.26939 | 10330 ft | 293 kts | 296° |
| 2026-05-06 16:05 | 51.85747 | 46.23895 | 11112 ft | 299 kts | 296° |
| 2026-05-06 16:05 | 51.86576 | 46.20834 | 11882 ft | 304 kts | 296° |
| 2026-05-06 16:06 | 51.87431 | 46.17681 | 12692 ft | 308 kts | 296° |
| 2026-05-06 16:06 | 51.88294 | 46.14494 | 13511 ft | 312 kts | 296° |
| 2026-05-06 16:06 | 51.89156 | 46.11302 | 14292 ft | 316 kts | 296° |
| 2026-05-06 16:06 | 51.90039 | 46.08029 | 15075 ft | 317 kts | 296° |
| 2026-05-06 16:07 | 51.90905 | 46.04807 | 15609 ft | 308 kts | 296° |
| 2026-05-06 16:07 | 51.91777 | 46.01564 | 15963 ft | 316 kts | 296° |
| 2026-05-06 16:07 | 51.92658 | 45.98288 | 16586 ft | 322 kts | 296° |
| 2026-05-06 16:07 | 51.93549 | 45.94964 | 16953 ft | 327 kts | 296° |
| 2026-05-06 16:08 | 51.94454 | 45.91585 | 17634 ft | 331 kts | 296° |
| 2026-05-06 16:08 | 51.95379 | 45.88129 | 18323 ft | 336 kts | 296° |
| 2026-05-06 16:08 | 51.96304 | 45.84666 | 18995 ft | 339 kts | 296° |
| 2026-05-06 16:08 | 51.97252 | 45.81111 | 19657 ft | 343 kts | 296° |
| 2026-05-06 16:09 | 51.98189 | 45.77581 | 20285 ft | 348 kts | 295° |
| 2026-05-06 16:09 | 51.99055 | 45.73867 | 20692 ft | 360 kts | 291° |
| 2026-05-06 16:09 | 51.99873 | 45.69936 | 21030 ft | 373 kts | 291° |
| 2026-05-06 16:09 | 52.00674 | 45.66154 | 21545 ft | 379 kts | 291° |
| 2026-05-06 16:10 | 52.01593 | 45.61901 | 22155 ft | 384 kts | 291° |
| 2026-05-06 16:10 | 52.02486 | 45.57756 | 22769 ft | 387 kts | 291° |
| 2026-05-06 16:10 | 52.03370 | 45.53623 | 23360 ft | 390 kts | 291° |
| 2026-05-06 16:10 | 52.04258 | 45.49469 | 23926 ft | 394 kts | 291° |
| 2026-05-06 16:11 | 52.05159 | 45.45256 | 24480 ft | 397 kts | 291° |
| 2026-05-06 16:11 | 52.06068 | 45.41000 | 25020 ft | 401 kts | 291° |
| 2026-05-06 16:11 | 52.06974 | 45.36749 | 25551 ft | 403 kts | 291° |
| 2026-05-06 16:11 | 52.07892 | 45.32433 | 26079 ft | 406 kts | 290° |
| 2026-05-06 16:12 | 52.08814 | 45.28080 | 26577 ft | 409 kts | 290° |
| 2026-05-06 16:12 | 52.09736 | 45.23719 | 27056 ft | 412 kts | 290° |
| 2026-05-06 16:12 | 52.10661 | 45.19335 | 27531 ft | 415 kts | 289° |
| 2026-05-06 16:12 | 52.11606 | 45.14850 | 28000 ft | 418 kts | 289° |
| 2026-05-06 16:13 | 52.12548 | 45.10365 | 28449 ft | 420 kts | 289° |
| 2026-05-06 16:13 | 52.13485 | 45.05891 | 28880 ft | 423 kts | 289° |
| 2026-05-06 16:13 | 52.14439 | 45.01333 | 29319 ft | 425 kts | 289° |
| 2026-05-06 16:13 | 52.15394 | 44.96757 | 29739 ft | 428 kts | 289° |
| 2026-05-06 16:14 | 52.16356 | 44.92138 | 30145 ft | 430 kts | 289° |
| 2026-05-06 16:14 | 52.17316 | 44.87513 | 30553 ft | 432 kts | 289° |
| 2026-05-06 16:14 | 52.18310 | 44.82904 | 30953 ft | 434 kts | 292° |
| 2026-05-06 16:14 | 52.19550 | 44.78412 | 31334 ft | 436 kts | 298° |
| 2026-05-06 16:15 | 52.21135 | 44.74195 | 31706 ft | 437 kts | 307° |
| 2026-05-06 16:15 | 52.23113 | 44.70374 | 32084 ft | 438 kts | 314° |
| 2026-05-06 16:15 | 52.25231 | 44.66759 | 32436 ft | 440 kts | 314° |
| 2026-05-06 16:15 | 52.27338 | 44.63106 | 32782 ft | 442 kts | 313° |
| 2026-05-06 16:16 | 52.29429 | 44.59414 | 33114 ft | 444 kts | 313° |
| 2026-05-06 16:16 | 52.31532 | 44.55703 | 33440 ft | 446 kts | 313° |
| 2026-05-06 16:16 | 52.33661 | 44.51969 | 33756 ft | 448 kts | 313° |
| 2026-05-06 16:16 | 52.35769 | 44.48279 | 34057 ft | 450 kts | 314° |
| 2026-05-06 16:17 | 52.37912 | 44.44521 | 34358 ft | 452 kts | 313° |
| 2026-05-06 16:17 | 52.40054 | 44.40756 | 34709 ft | 452 kts | 313° |
| 2026-05-06 16:17 | 52.42196 | 44.36990 | 35205 ft | 448 kts | 313° |
| 2026-05-06 16:17 | 52.44306 | 44.33276 | 35581 ft | 447 kts | 313° |
| 2026-05-06 16:18 | 52.46407 | 44.29574 | 35859 ft | 448 kts | 313° |
| 2026-05-06 16:18 | 52.48534 | 44.25820 | 35855 ft | 450 kts | 313° |
| 2026-05-06 16:18 | 52.52760 | 44.18349 | 35858 ft | 444 kts | 313° |
| 2026-05-06 16:19 | 52.56957 | 44.10906 | 35862 ft | 442 kts | 313° |
| 2026-05-06 16:19 | 52.61127 | 44.03491 | 35871 ft | 443 kts | 313° |
| 2026-05-06 16:20 | 52.65319 | 43.96015 | 35878 ft | 444 kts | 313° |
| 2026-05-06 16:20 | 52.69488 | 43.88557 | 35876 ft | 443 kts | 313° |
| 2026-05-06 16:21 | 52.73432 | 43.81393 | 35870 ft | 442 kts | 311° |
| 2026-05-06 16:21 | 52.77692 | 43.73528 | 35863 ft | 441 kts | 312° |
| 2026-05-06 16:22 | 52.81789 | 43.65972 | 35858 ft | 441 kts | 312° |
| 2026-05-06 16:22 | 52.85880 | 43.58398 | 35858 ft | 442 kts | 312° |
| 2026-05-06 16:23 | 52.89975 | 43.50798 | 35858 ft | 441 kts | 312° |
| 2026-05-06 16:23 | 52.94046 | 43.43219 | 35857 ft | 440 kts | 312° |
| 2026-05-06 16:24 | 52.98103 | 43.35643 | 35857 ft | 440 kts | 312° |
| 2026-05-06 16:24 | 53.02169 | 43.28027 | 35858 ft | 439 kts | 311° |
| 2026-05-06 16:25 | 53.06220 | 43.20419 | 35858 ft | 440 kts | 311° |
| 2026-05-06 16:25 | 53.10257 | 43.12811 | 35858 ft | 439 kts | 311° |
| 2026-05-06 16:26 | 53.14287 | 43.05204 | 35858 ft | 439 kts | 311° |
| 2026-05-06 16:26 | 53.18396 | 42.97786 | 35858 ft | 439 kts | 313° |
| 2026-05-06 16:27 | 53.22557 | 42.90286 | 35858 ft | 439 kts | 312° |
| 2026-05-06 16:27 | 53.26664 | 42.82827 | 35858 ft | 439 kts | 312° |
| 2026-05-06 16:28 | 53.30792 | 42.75311 | 35858 ft | 439 kts | 312° |
| 2026-05-06 16:28 | 53.34915 | 42.67778 | 35858 ft | 439 kts | 312° |
| 2026-05-06 16:29 | 53.39059 | 42.60180 | 35858 ft | 439 kts | 312° |
| 2026-05-06 16:29 | 53.43109 | 42.52640 | 35857 ft | 438 kts | 309° |
| 2026-05-06 16:30 | 53.45744 | 42.45367 | 35859 ft | 437 kts | 294° |
| 2026-05-06 16:30 | 53.47927 | 42.34087 | 35858 ft | 438 kts | 286° |
| 2026-05-06 16:31 | 53.49708 | 42.24269 | 35858 ft | 438 kts | 287° |
| 2026-05-06 16:31 | 53.51456 | 42.14478 | 35858 ft | 437 kts | 286° |
| 2026-05-06 16:32 | 53.53180 | 42.04657 | 35858 ft | 437 kts | 286° |
| 2026-05-06 16:32 | 53.54886 | 41.94852 | 35858 ft | 437 kts | 286° |
| 2026-05-06 16:33 | 53.56577 | 41.85051 | 35858 ft | 437 kts | 286° |
| 2026-05-06 16:34 | 53.59107 | 41.70258 | 35858 ft | 437 kts | 286° |
| 2026-05-06 16:34 | 53.60777 | 41.60415 | 35858 ft | 437 kts | 286° |
| 2026-05-06 16:35 | 53.62439 | 41.50559 | 35858 ft | 437 kts | 286° |
| 2026-05-06 16:35 | 53.64087 | 41.40730 | 35858 ft | 437 kts | 286° |
| 2026-05-06 16:36 | 53.65739 | 41.30824 | 35858 ft | 437 kts | 285° |
| 2026-05-06 16:36 | 53.67369 | 41.20995 | 35858 ft | 437 kts | 285° |
| 2026-05-06 16:37 | 53.68994 | 41.11132 | 35858 ft | 438 kts | 285° |
| 2026-05-06 16:37 | 53.70752 | 41.01289 | 35858 ft | 439 kts | 291° |
| 2026-05-06 16:38 | 53.73199 | 40.91859 | 35870 ft | 439 kts | 294° |
| 2026-05-06 16:38 | 53.75621 | 40.82401 | 35880 ft | 438 kts | 293° |
| 2026-05-06 16:39 | 53.78044 | 40.72931 | 35885 ft | 438 kts | 293° |
| 2026-05-06 16:39 | 53.80464 | 40.63469 | 35885 ft | 437 kts | 293° |
| 2026-05-06 16:40 | 53.82863 | 40.54050 | 35885 ft | 437 kts | 294° |
| 2026-05-06 16:40 | 53.85249 | 40.44656 | 35884 ft | 436 kts | 294° |
| 2026-05-06 16:41 | 53.87632 | 40.35230 | 35885 ft | 436 kts | 294° |